Time;durP1;ratioP1;P1;durP2;ratioP2;P2;SDS_P1;SDS_P2;PMS_P1;PMS_P2;Temp;Humidity;BMP_temperature;BMP_pressure;BME280_temperature;BME280_humidity;BME280_pressure;Samples;Min_cycle;Max_cycle;Signal;HPM_P1;HPM_P2
2022/07/07 00:01:41;;;;;;;22.45;8.70;;;;;;;;;;4950770;29;20035;-89
2022/07/07 00:04:08;;;;;;;21.10;7.93;;;;;;;;;;4950812;28;20027;-87
2022/07/07 00:06:35;;;;;;;18.38;8.65;;;;;;;;;;4936091;29;20027;-88
2022/07/07 00:09:05;;;;;;;17.95;6.80;;;;;;;;;;4938464;29;20039;-88
2022/07/07 00:11:31;;;;;;;21.83;7.65;;;;;;;;;;4953221;28;20032;-88
2022/07/07 00:13:58;;;;;;;12.48;7.07;;;;;;;;;;4951163;29;20651;-88
2022/07/07 00:16:24;;;;;;;15.23;6.35;;;;;;;;;;4937954;29;20023;-88
2022/07/07 00:18:50;;;;;;;19.10;7.13;;;;;;;;;;4965738;28;20534;-89
2022/07/07 00:21:16;;;;;;;15.55;7.25;;;;;;;;;;4956994;28;20070;-89
2022/07/07 00:23:43;;;;;;;17.33;6.97;;;;;;;;;;4952017;28;20035;-88
2022/07/07 00:26:09;;;;;;;16.08;5.97;;;;;;;;;;4970110;28;20055;-88
2022/07/07 00:28:35;;;;;;;10.93;6.68;;;;;;;;;;4957359;28;20035;-89
2022/07/07 00:31:01;;;;;;;18.15;6.72;;;;;;;;;;4958415;28;20057;-88
2022/07/07 00:33:28;;;;;;;15.18;6.72;;;;;;;;;;4959437;28;20434;-89
2022/07/07 00:35:54;;;;;;;18.25;6.63;;;;;;;;;;4972368;28;20034;-87
2022/07/07 00:38:20;;;;;;;12.02;6.70;;;;;;;;;;4961839;28;20469;-89
2022/07/07 00:40:50;;;;;;;20.60;6.38;;;;;;;;;;4953606;28;20679;-88
2022/07/07 00:43:16;;;;;;;11.30;6.70;;;;;;;;;;4957808;28;20031;-89
2022/07/07 00:45:46;;;;;;;16.90;5.68;;;;;;;;;;4972890;28;20033;-89
2022/07/07 00:48:14;;;;;;;18.67;7.55;;;;;;;;;;4959352;28;20122;-89
2022/07/07 00:50:41;;;;;;;12.32;6.60;;;;;;;;;;4953308;28;20486;-88
2022/07/07 00:53:07;;;;;;;10.38;4.75;;;;;;;;;;4957602;28;20483;-88
2022/07/07 00:55:33;;;;;;;10.90;4.57;;;;;;;;;;4974176;28;20037;-88
2022/07/07 00:57:59;;;;;;;11.70;4.57;;;;;;;;;;4958418;28;20581;-88
2022/07/07 01:00:28;;;;;;;6.05;3.60;;;;;;;;;;4960954;28;20406;-88
2022/07/07 01:02:54;;;;;;;9.15;3.65;;;;;;;;;;4961448;28;20098;-88
2022/07/07 01:05:21;;;;;;;7.65;3.63;;;;;;;;;;4973229;28;20037;-88
2022/07/07 01:07:48;;;;;;;7.82;4.90;;;;;;;;;;4955615;28;20031;-88
2022/07/07 01:10:14;;;;;;;13.40;4.13;;;;;;;;;;4957923;28;20181;-87
2022/07/07 01:12:41;;;;;;;9.43;3.65;;;;;;;;;;4960592;28;20511;-88
2022/07/07 01:15:09;;;;;;;10.30;3.22;;;;;;;;;;4970368;28;21761;-88
2022/07/07 01:17:35;;;;;;;12.52;3.63;;;;;;;;;;4972294;28;20046;-89
2022/07/07 01:20:02;;;;;;;8.98;3.75;;;;;;;;;;4957912;28;20085;-89
2022/07/07 01:22:29;;;;;;;11.60;4.80;;;;;;;;;;4956255;28;20061;-89
2022/07/07 01:24:55;;;;;;;11.00;3.97;;;;;;;;;;4957087;28;20038;-89
2022/07/07 01:27:22;;;;;;;11.05;3.90;;;;;;;;;;4949876;28;20114;-89
2022/07/07 01:29:49;;;;;;;12.07;4.65;;;;;;;;;;4973257;28;20061;-88
2022/07/07 01:32:16;;;;;;;8.27;3.83;;;;;;;;;;4962404;28;20022;-87
2022/07/07 01:34:44;;;;;;;17.77;3.97;;;;;;;;;;4958864;28;20030;-88
2022/07/07 01:37:10;;;;;;;12.50;4.35;;;;;;;;;;4952388;28;20031;-88
2022/07/07 01:39:37;;;;;;;14.60;4.70;;;;;;;;;;4973105;28;20038;-89
2022/07/07 01:42:07;;;;;;;7.97;4.32;;;;;;;;;;4972111;28;20514;-89
2022/07/07 01:44:34;;;;;;;13.35;4.25;;;;;;;;;;4960206;28;20558;-89
2022/07/07 01:47:00;;;;;;;9.88;4.10;;;;;;;;;;4969151;28;20710;-88
2022/07/07 01:49:26;;;;;;;10.00;3.72;;;;;;;;;;4953864;28;20041;-88
2022/07/07 01:51:54;;;;;;;18.55;4.90;;;;;;;;;;4952951;28;20045;-89
2022/07/07 01:54:20;;;;;;;12.73;4.38;;;;;;;;;;4956593;28;20031;-89
2022/07/07 01:56:46;;;;;;;14.80;4.43;;;;;;;;;;4955020;28;21061;-89
2022/07/07 01:59:16;;;;;;;17.80;3.95;;;;;;;;;;4956337;28;20090;-88
2022/07/07 02:01:42;;;;;;;16.33;4.75;;;;;;;;;;4971037;28;20023;-87
2022/07/07 02:04:08;;;;;;;15.25;5.07;;;;;;;;;;4970807;28;20035;-88
2022/07/07 02:06:34;;;;;;;17.23;4.68;;;;;;;;;;4955405;28;20560;-90
2022/07/07 02:09:00;;;;;;;22.00;4.45;;;;;;;;;;4956658;28;20034;-87
2022/07/07 02:11:27;;;;;;;20.58;4.32;;;;;;;;;;4969278;28;20131;-89
2022/07/07 02:13:54;;;;;;;19.73;4.38;;;;;;;;;;4955410;28;20471;-89
2022/07/07 02:16:23;;;;;;;14.10;4.22;;;;;;;;;;4971223;28;20076;-88
2022/07/07 02:18:50;;;;;;;19.17;4.43;;;;;;;;;;4958624;28;20426;-89
2022/07/07 02:21:16;;;;;;;17.30;4.50;;;;;;;;;;4975967;28;20526;-89
2022/07/07 02:23:44;;;;;;;17.10;4.70;;;;;;;;;;4972490;28;20065;-89
2022/07/07 02:26:11;;;;;;;11.48;4.18;;;;;;;;;;4959635;28;20023;-89
2022/07/07 02:28:39;;;;;;;22.05;3.80;;;;;;;;;;4978847;28;20394;-88
2022/07/07 02:31:05;;;;;;;17.92;3.90;;;;;;;;;;4958430;28;20058;-89
2022/07/07 02:33:31;;;;;;;18.70;4.03;;;;;;;;;;4976698;28;20046;-90
2022/07/07 02:35:58;;;;;;;15.45;3.53;;;;;;;;;;4972326;28;20088;-88
2022/07/07 02:38:25;;;;;;;12.93;3.15;;;;;;;;;;4961064;28;20058;-88
2022/07/07 02:40:51;;;;;;;14.98;4.63;;;;;;;;;;4960146;28;20559;-88
2022/07/07 02:43:18;;;;;;;16.58;4.32;;;;;;;;;;4961898;28;20027;-89
2022/07/07 02:45:44;;;;;;;23.65;3.72;;;;;;;;;;4961391;28;20034;-89
2022/07/07 02:48:11;;;;;;;13.68;4.15;;;;;;;;;;4956190;28;20474;-90
2022/07/07 02:50:38;;;;;;;14.45;4.45;;;;;;;;;;4958477;28;20035;-90
2022/07/07 02:53:04;;;;;;;19.58;3.72;;;;;;;;;;4954694;28;20470;-90
2022/07/07 02:55:30;;;;;;;23.38;4.55;;;;;;;;;;4960969;28;20438;-89
2022/07/07 02:57:59;;;;;;;21.95;4.70;;;;;;;;;;4976359;28;20015;-90
2022/07/07 03:00:26;;;;;;;18.10;3.22;;;;;;;;;;4956747;28;20043;-89
2022/07/07 03:02:55;;;;;;;18.10;3.88;;;;;;;;;;4959616;28;20045;-90
2022/07/07 03:05:22;;;;;;;20.80;3.30;;;;;;;;;;4959792;28;20613;-90
2022/07/07 03:07:49;;;;;;;18.88;3.17;;;;;;;;;;4956599;28;20504;-87
2022/07/07 03:10:15;;;;;;;11.73;3.33;;;;;;;;;;4957003;28;20054;-89
2022/07/07 03:12:42;;;;;;;18.75;3.55;;;;;;;;;;4959138;28;20039;-90
2022/07/07 03:15:09;;;;;;;14.98;3.35;;;;;;;;;;4968506;28;20161;-90
2022/07/07 03:17:35;;;;;;;16.50;3.25;;;;;;;;;;4957767;28;20482;-90
2022/07/07 03:20:05;;;;;;;19.40;3.75;;;;;;;;;;4954484;28;20076;-89
2022/07/07 03:22:31;;;;;;;16.38;3.33;;;;;;;;;;4954266;28;20038;-89
2022/07/07 03:24:57;;;;;;;7.20;2.13;;;;;;;;;;4960877;28;20530;-91
2022/07/07 03:27:23;;;;;;;16.30;3.22;;;;;;;;;;4957752;28;21260;-91
2022/07/07 03:29:51;;;;;;;13.98;2.53;;;;;;;;;;4956332;28;20035;-90
2022/07/07 03:32:17;;;;;;;8.45;2.33;;;;;;;;;;4973190;28;20022;-90
2022/07/07 03:34:43;;;;;;;11.82;1.98;;;;;;;;;;4975221;28;20084;-88
2022/07/07 03:37:09;;;;;;;17.15;1.98;;;;;;;;;;4957270;28;20080;-88
2022/07/07 03:39:35;;;;;;;19.58;2.30;;;;;;;;;;4954015;28;20038;-90
2022/07/07 03:42:01;;;;;;;13.55;1.42;;;;;;;;;;4962818;28;20030;-90
2022/07/07 03:44:28;;;;;;;14.27;2.10;;;;;;;;;;4957369;28;20058;-90
2022/07/07 03:46:55;;;;;;;15.43;1.63;;;;;;;;;;4957260;28;20045;-89
2022/07/07 03:49:21;;;;;;;19.90;2.70;;;;;;;;;;4958333;28;20031;-90
2022/07/07 03:52:01;;;;;;;22.88;2.35;;;;;;;;;;4976226;28;20033;-89
2022/07/07 03:54:27;;;;;;;9.68;2.00;;;;;;;;;;4958327;28;20659;-90
2022/07/07 03:56:53;;;;;;;15.02;1.60;;;;;;;;;;4954952;28;20178;-90
2022/07/07 03:59:19;;;;;;;8.93;0.68;;;;;;;;;;4962231;28;20113;-90
2022/07/07 04:01:45;;;;;;;14.45;1.15;;;;;;;;;;4954944;28;20447;-88
2022/07/07 04:04:15;;;;;;;8.75;1.70;;;;;;;;;;4949932;28;20058;-90
2022/07/07 04:06:42;;;;;;;11.23;1.60;;;;;;;;;;4973381;28;20027;-88
2022/07/07 04:09:17;;;;;;;8.52;1.70;;;;;;;;;;4954481;28;20033;-90
2022/07/07 04:11:43;;;;;;;13.55;1.90;;;;;;;;;;4975588;28;20516;-89
2022/07/07 04:14:15;;;;;;;13.43;1.92;;;;;;;;;;4972742;28;20038;-90
2022/07/07 04:16:49;;;;;;;14.70;2.15;;;;;;;;;;4970960;28;20311;-88
2022/07/07 04:19:15;;;;;;;13.55;1.92;;;;;;;;;;4957123;28;20042;-89
2022/07/07 04:21:41;;;;;;;20.08;2.60;;;;;;;;;;4972430;28;20031;-88
2022/07/07 04:24:07;;;;;;;12.68;1.90;;;;;;;;;;4954787;28;20453;-91
2022/07/07 04:26:33;;;;;;;15.88;1.88;;;;;;;;;;4954559;28;20031;-89
2022/07/07 04:29:02;;;;;;;10.07;1.98;;;;;;;;;;4973590;28;20038;-89
2022/07/07 04:31:28;;;;;;;15.25;2.08;;;;;;;;;;4974248;28;20038;-88
2022/07/07 04:34:05;;;;;;;15.27;2.10;;;;;;;;;;4973889;28;20175;-88
2022/07/07 04:36:34;;;;;;;13.93;2.40;;;;;;;;;;4955874;28;20625;-89
2022/07/07 04:39:00;;;;;;;11.85;1.60;;;;;;;;;;4955141;28;20054;-90
2022/07/07 04:41:26;;;;;;;11.27;1.92;;;;;;;;;;4956340;28;20585;-90
2022/07/07 04:43:52;;;;;;;15.27;2.10;;;;;;;;;;4953126;28;20031;-90
2022/07/07 04:46:21;;;;;;;15.90;2.20;;;;;;;;;;4949431;28;20022;-90
2022/07/07 04:48:51;;;;;;;9.48;2.00;;;;;;;;;;4969071;28;20120;-88
2022/07/07 04:51:17;;;;;;;8.55;1.70;;;;;;;;;;4971015;28;20031;-88
2022/07/07 04:53:43;;;;;;;14.13;1.73;;;;;;;;;;4954650;28;20028;-89
2022/07/07 04:56:09;;;;;;;17.45;2.05;;;;;;;;;;4956028;28;20030;-90
2022/07/07 04:58:35;;;;;;;13.93;1.70;;;;;;;;;;4975493;28;20030;-88
2022/07/07 05:01:01;;;;;;;10.60;2.47;;;;;;;;;;4956765;28;20485;-90
2022/07/07 05:03:27;;;;;;;22.23;2.30;;;;;;;;;;4955992;28;20380;-89
2022/07/07 05:05:53;;;;;;;14.80;2.47;;;;;;;;;;4972458;28;20035;-88
2022/07/07 05:08:19;;;;;;;18.58;2.95;;;;;;;;;;4959126;28;20031;-89
2022/07/07 05:10:45;;;;;;;8.43;2.15;;;;;;;;;;4957318;28;20038;-87
2022/07/07 05:13:11;;;;;;;12.98;2.88;;;;;;;;;;4951775;28;20039;-88
2022/07/07 05:15:37;;;;;;;17.90;3.13;;;;;;;;;;4971645;28;20034;-90
2022/07/07 05:18:04;;;;;;;14.75;2.42;;;;;;;;;;4958727;28;20035;-89
2022/07/07 05:20:30;;;;;;;28.88;2.97;;;;;;;;;;4954776;28;20058;-89
2022/07/07 05:22:56;;;;;;;7.97;2.28;;;;;;;;;;4966274;28;20050;-90
2022/07/07 05:25:22;;;;;;;25.60;3.03;;;;;;;;;;4952708;28;20082;-90
2022/07/07 05:27:48;;;;;;;16.23;2.72;;;;;;;;;;4958265;28;20419;-90
2022/07/07 05:30:15;;;;;;;11.23;2.33;;;;;;;;;;4957428;28;20027;-88
2022/07/07 05:32:41;;;;;;;23.25;3.22;;;;;;;;;;4954332;28;20805;-89
2022/07/07 05:35:07;;;;;;;14.38;2.80;;;;;;;;;;4969701;28;20038;-88
2022/07/07 05:37:33;;;;;;;16.05;2.58;;;;;;;;;;4954806;28;20045;-89
2022/07/07 05:40:00;;;;;;;13.50;2.78;;;;;;;;;;4969893;28;20078;-88
2022/07/07 05:42:26;;;;;;;15.32;2.83;;;;;;;;;;4963437;28;20041;-89
2022/07/07 05:44:55;;;;;;;22.17;3.08;;;;;;;;;;4952347;28;20094;-88
2022/07/07 05:47:21;;;;;;;17.77;2.78;;;;;;;;;;4956131;28;20031;-89
2022/07/07 05:49:47;;;;;;;17.02;4.57;;;;;;;;;;4951965;28;20039;-89
2022/07/07 05:52:13;;;;;;;12.27;2.03;;;;;;;;;;4954697;28;20816;-88
2022/07/07 05:54:39;;;;;;;15.27;2.67;;;;;;;;;;4959610;28;20047;-87
2022/07/07 05:57:06;;;;;;;19.95;3.30;;;;;;;;;;4960376;28;20034;-90
2022/07/07 05:59:33;;;;;;;15.38;2.67;;;;;;;;;;4960503;28;20035;-90
2022/07/07 06:01:59;;;;;;;15.32;2.70;;;;;;;;;;4956931;28;20035;-88
2022/07/07 06:04:26;;;;;;;12.68;2.47;;;;;;;;;;4959000;28;20030;-88
2022/07/07 06:06:52;;;;;;;11.38;3.33;;;;;;;;;;4958779;28;20034;-88
2022/07/07 06:09:19;;;;;;;14.10;1.92;;;;;;;;;;4960103;28;20033;-89
2022/07/07 06:11:46;;;;;;;12.98;2.38;;;;;;;;;;4960329;28;20089;-88
2022/07/07 06:14:12;;;;;;;19.15;2.20;;;;;;;;;;4956263;28;20038;-89
2022/07/07 06:16:41;;;;;;;20.85;2.88;;;;;;;;;;4956118;28;20114;-90
2022/07/07 06:19:12;;;;;;;15.27;3.35;;;;;;;;;;4959014;28;20066;-89
2022/07/07 06:21:39;;;;;;;13.05;2.63;;;;;;;;;;4965041;28;20053;-89
2022/07/07 06:24:05;;;;;;;8.55;2.20;;;;;;;;;;4971470;28;20046;-89
2022/07/07 06:26:31;;;;;;;13.80;2.38;;;;;;;;;;4961886;28;20031;-90
2022/07/07 06:28:57;;;;;;;12.68;2.22;;;;;;;;;;4974787;28;20133;-89
2022/07/07 06:31:23;;;;;;;7.93;1.45;;;;;;;;;;4965282;28;20030;-89
2022/07/07 06:33:49;;;;;;;12.45;2.00;;;;;;;;;;4956502;28;20035;-89
2022/07/07 06:36:16;;;;;;;12.15;2.00;;;;;;;;;;4953162;28;20070;-91
2022/07/07 06:38:42;;;;;;;13.05;1.92;;;;;;;;;;4959801;28;20023;-89
2022/07/07 06:41:09;;;;;;;5.22;1.23;;;;;;;;;;4954712;28;20031;-89
2022/07/07 06:43:35;;;;;;;11.93;1.70;;;;;;;;;;4955761;28;20054;-89
2022/07/07 06:46:01;;;;;;;15.60;1.88;;;;;;;;;;4950332;28;20039;-88
2022/07/07 06:48:27;;;;;;;8.95;1.50;;;;;;;;;;4970686;28;20031;-88
2022/07/07 06:50:54;;;;;;;18.33;2.35;;;;;;;;;;4954484;28;20034;-88
2022/07/07 06:53:21;;;;;;;10.00;2.17;;;;;;;;;;4950157;28;20045;-87
2022/07/07 06:55:47;;;;;;;11.60;2.05;;;;;;;;;;4969825;28;20034;-88
2022/07/07 06:58:16;;;;;;;6.95;1.40;;;;;;;;;;4956136;28;20035;-88
2022/07/07 07:00:42;;;;;;;2.08;0.52;;;;;;;;;;4960313;28;20027;-88
2022/07/07 07:03:09;;;;;;;3.92;1.00;;;;;;;;;;4955220;28;20561;-89
2022/07/07 07:05:35;;;;;;;2.10;0.57;;;;;;;;;;4949321;28;20062;-89
2022/07/07 07:08:01;;;;;;;3.45;0.70;;;;;;;;;;4972842;28;20042;-88
2022/07/07 07:10:27;;;;;;;8.77;1.60;;;;;;;;;;4969399;28;20107;-88
2022/07/07 07:12:53;;;;;;;5.80;0.85;;;;;;;;;;4958017;28;20058;-87
2022/07/07 07:15:19;;;;;;;9.77;1.33;;;;;;;;;;4955286;28;20030;-88
2022/07/07 07:17:45;;;;;;;8.07;1.55;;;;;;;;;;4968461;28;20514;-89
2022/07/07 07:20:12;;;;;;;5.47;1.08;;;;;;;;;;4955578;28;20062;-88
2022/07/07 07:22:39;;;;;;;5.68;1.38;;;;;;;;;;4951131;28;20026;-88
2022/07/07 07:25:05;;;;;;;5.72;1.10;;;;;;;;;;4957555;28;20046;-87
2022/07/07 07:27:31;;;;;;;2.97;1.05;;;;;;;;;;4956928;28;20035;-89
2022/07/07 07:29:57;;;;;;;2.58;0.80;;;;;;;;;;4970035;28;20375;-89
2022/07/07 07:32:23;;;;;;;6.28;1.08;;;;;;;;;;4966256;28;20038;-88
2022/07/07 07:34:50;;;;;;;4.30;1.17;;;;;;;;;;4956928;28;20637;-88
2022/07/07 07:37:16;;;;;;;4.82;0.80;;;;;;;;;;4967003;28;20027;-89
2022/07/07 07:39:42;;;;;;;4.68;0.98;;;;;;;;;;4965686;28;20039;-89
2022/07/07 07:42:08;;;;;;;10.65;1.05;;;;;;;;;;4952607;28;20054;-90
2022/07/07 07:47:18;;;;;;;4.88;1.00;;;;;;;;;;4971405;28;20061;-90
2022/07/07 07:49:44;;;;;;;2.83;0.60;;;;;;;;;;4969824;28;21410;-91
2022/07/07 07:52:10;;;;;;;5.43;0.70;;;;;;;;;;4952146;28;20032;-91
2022/07/07 07:54:37;;;;;;;7.35;0.93;;;;;;;;;;4952249;28;20047;-90
2022/07/07 07:57:03;;;;;;;3.75;1.23;;;;;;;;;;4954017;28;20038;-90
2022/07/07 07:59:29;;;;;;;3.85;0.95;;;;;;;;;;4970111;28;20338;-89
2022/07/07 08:01:55;;;;;;;5.70;1.00;;;;;;;;;;4943593;28;20031;-90
2022/07/07 08:04:21;;;;;;;8.70;1.23;;;;;;;;;;4951747;28;20062;-91
2022/07/07 08:06:47;;;;;;;11.57;1.10;;;;;;;;;;4956408;28;20524;-90
2022/07/07 08:09:14;;;;;;;8.02;1.73;;;;;;;;;;4958046;28;20205;-90
2022/07/07 08:11:39;;;;;;;5.05;1.02;;;;;;;;;;4969839;28;20122;-91
2022/07/07 08:14:06;;;;;;;4.03;0.93;;;;;;;;;;4963119;28;20770;-90
2022/07/07 08:16:32;;;;;;;5.72;1.35;;;;;;;;;;4953420;28;20299;-91
2022/07/07 08:18:58;;;;;;;3.80;1.25;;;;;;;;;;4951513;28;20047;-92
2022/07/07 08:21:24;;;;;;;2.80;1.02;;;;;;;;;;4955012;28;20090;-91
2022/07/07 08:23:50;;;;;;;3.33;1.30;;;;;;;;;;4952393;28;20026;-89
2022/07/07 08:26:16;;;;;;;12.68;1.67;;;;;;;;;;4958567;28;20058;-91
2022/07/07 08:28:42;;;;;;;12.07;2.20;;;;;;;;;;4971023;28;20023;-92
2022/07/07 08:31:08;;;;;;;8.40;1.60;;;;;;;;;;4950063;28;20023;-89
2022/07/07 08:33:35;;;;;;;8.93;1.33;;;;;;;;;;4970140;28;20061;-88
2022/07/07 08:36:01;;;;;;;12.68;1.67;;;;;;;;;;4969394;28;20443;-89
2022/07/07 08:38:30;;;;;;;7.03;1.45;;;;;;;;;;4950718;28;20053;-89
2022/07/07 08:40:56;;;;;;;5.85;1.63;;;;;;;;;;4975069;28;20061;-88
2022/07/07 08:43:25;;;;;;;8.13;1.75;;;;;;;;;;4951764;28;20112;-89
2022/07/07 08:45:52;;;;;;;9.35;1.50;;;;;;;;;;4965436;28;20026;-88
2022/07/07 08:48:19;;;;;;;9.07;1.80;;;;;;;;;;4952723;28;20045;-89
2022/07/07 08:50:45;;;;;;;6.75;1.75;;;;;;;;;;4951097;28;20117;-89
2022/07/07 08:53:12;;;;;;;8.00;1.90;;;;;;;;;;4953119;28;20038;-89
2022/07/07 08:55:41;;;;;;;7.45;1.63;;;;;;;;;;4953919;28;20045;-88
2022/07/07 08:58:07;;;;;;;13.05;2.25;;;;;;;;;;4949393;28;20069;-87
2022/07/07 09:00:34;;;;;;;10.15;2.00;;;;;;;;;;4952092;28;20429;-88
2022/07/07 09:03:03;;;;;;;8.40;1.92;;;;;;;;;;4946686;28;20117;-88
2022/07/07 09:05:33;;;;;;;13.32;2.35;;;;;;;;;;4952840;28;20047;-88
2022/07/07 09:08:00;;;;;;;7.38;2.03;;;;;;;;;;4971677;28;20657;-89
2022/07/07 09:10:28;;;;;;;7.45;1.63;;;;;;;;;;4948644;28;20133;-88
2022/07/07 09:12:54;;;;;;;7.15;1.40;;;;;;;;;;4954291;28;20054;-88
2022/07/07 09:15:24;;;;;;;5.05;1.33;;;;;;;;;;4956463;28;20085;-89
2022/07/07 09:17:50;;;;;;;3.33;1.33;;;;;;;;;;4950673;28;20031;-88
2022/07/07 09:20:17;;;;;;;5.05;1.30;;;;;;;;;;4955322;28;20039;-88
2022/07/07 09:22:54;;;;;;;4.85;1.70;;;;;;;;;;4952983;28;20048;-89
2022/07/07 09:25:21;;;;;;;6.22;2.00;;;;;;;;;;4970964;28;20026;-89
2022/07/07 09:27:50;;;;;;;10.10;1.70;;;;;;;;;;4952738;28;20027;-89
2022/07/07 09:30:27;;;;;;;2.95;1.30;;;;;;;;;;4958450;28;20113;-89
2022/07/07 09:32:53;;;;;;;7.10;2.45;;;;;;;;;;4972118;28;20034;-89
2022/07/07 09:38:14;;;;;;;10.82;1.67;;;;;;;;;;4972980;28;20038;-87
2022/07/07 09:41:10;;;;;;;6.65;1.88;;;;;;;;;;4958265;28;20083;-89
2022/07/07 09:43:51;;;;;;;6.97;1.27;;;;;;;;;;4937276;28;20162;-89
2022/07/07 09:46:23;;;;;;;11.65;2.08;;;;;;;;;;4958533;28;20536;-89
2022/07/07 09:48:50;;;;;;;5.28;1.60;;;;;;;;;;4976110;28;20026;-89
2022/07/07 09:51:16;;;;;;;2.40;1.08;;;;;;;;;;4957074;28;20110;-88
2022/07/07 09:54:01;;;;;;;3.95;1.50;;;;;;;;;;4959705;28;20504;-88
2022/07/07 09:56:28;;;;;;;7.47;1.40;;;;;;;;;;4972854;28;20050;-89
2022/07/07 09:58:54;;;;;;;8.43;1.25;;;;;;;;;;4957147;28;20062;-89
2022/07/07 10:01:28;;;;;;;4.43;1.33;;;;;;;;;;4955593;28;20038;-88
2022/07/07 10:03:56;;;;;;;9.95;1.50;;;;;;;;;;4955175;28;20590;-89
2022/07/07 10:06:23;;;;;;;6.63;1.48;;;;;;;;;;4969661;28;20049;-88
2022/07/07 10:08:50;;;;;;;6.28;1.60;;;;;;;;;;4960717;28;20038;-89
2022/07/07 10:11:23;;;;;;;9.85;2.30;;;;;;;;;;4959612;28;20143;-88
2022/07/07 10:13:50;;;;;;;7.97;1.65;;;;;;;;;;4956827;28;20661;-89
2022/07/07 10:16:16;;;;;;;11.43;2.05;;;;;;;;;;4968256;28;20058;-89
2022/07/07 10:18:43;;;;;;;10.65;3.28;;;;;;;;;;4970150;28;20039;-89
2022/07/07 10:21:09;;;;;;;7.10;1.75;;;;;;;;;;4955309;28;20070;-88
2022/07/07 10:23:35;;;;;;;6.38;1.92;;;;;;;;;;4973599;28;20031;-89
2022/07/07 10:26:07;;;;;;;20.90;2.65;;;;;;;;;;4973399;28;20541;-88
2022/07/07 10:28:52;;;;;;;11.35;2.45;;;;;;;;;;4954214;28;20042;-88
2022/07/07 10:31:22;;;;;;;18.40;3.47;;;;;;;;;;4955964;28;20097;-88
2022/07/07 10:34:08;;;;;;;12.13;2.42;;;;;;;;;;4950521;28;20034;-88
2022/07/07 10:36:50;;;;;;;16.38;2.65;;;;;;;;;;4949156;28;20058;-88
2022/07/07 10:39:26;;;;;;;6.13;1.65;;;;;;;;;;4966340;28;20034;-88
2022/07/07 10:41:55;;;;;;;20.55;3.45;;;;;;;;;;4967638;28;20058;-88
2022/07/07 10:44:21;;;;;;;18.10;2.33;;;;;;;;;;4973145;28;20467;-87
2022/07/07 10:46:58;;;;;;;19.02;2.83;;;;;;;;;;4951907;28;20046;-88
2022/07/07 10:49:36;;;;;;;21.25;3.38;;;;;;;;;;4957695;28;20187;-88
2022/07/07 10:52:05;;;;;;;16.27;2.10;;;;;;;;;;4953618;28;20851;-88
2022/07/07 10:54:34;;;;;;;11.10;2.17;;;;;;;;;;4968873;28;20038;-88
2022/07/07 10:57:00;;;;;;;13.85;2.38;;;;;;;;;;4955152;28;20133;-88
2022/07/07 10:59:30;;;;;;;16.88;3.08;;;;;;;;;;4948275;28;20110;-88
2022/07/07 11:02:16;;;;;;;12.25;2.40;;;;;;;;;;4968113;28;20535;-88
2022/07/07 11:04:51;;;;;;;11.27;2.90;;;;;;;;;;4970992;28;20054;-89
2022/07/07 11:07:18;;;;;;;9.73;2.17;;;;;;;;;;4950348;28;20035;-88
2022/07/07 11:10:06;;;;;;;9.68;2.05;;;;;;;;;;4970677;28;20033;-86
2022/07/07 11:12:51;;;;;;;22.98;2.65;;;;;;;;;;4951738;28;20039;-88
2022/07/07 11:15:21;;;;;;;13.02;2.35;;;;;;;;;;4950803;28;20031;-86
2022/07/07 11:18:09;;;;;;;11.30;2.78;;;;;;;;;;4952012;28;20029;-86
2022/07/07 11:20:35;;;;;;;11.80;2.58;;;;;;;;;;4971606;28;20071;-87
2022/07/07 11:23:07;;;;;;;17.42;3.15;;;;;;;;;;4949749;28;20093;-87
2022/07/07 11:25:33;;;;;;;12.05;2.00;;;;;;;;;;4954829;28;20042;-86
2022/07/07 11:27:59;;;;;;;20.77;2.40;;;;;;;;;;4953399;28;20035;-86
2022/07/07 11:30:26;;;;;;;12.48;2.67;;;;;;;;;;4958091;28;20493;-87
2022/07/07 11:32:56;;;;;;;4.20;1.77;;;;;;;;;;4949151;28;20065;-87
2022/07/07 11:35:22;;;;;;;11.45;2.10;;;;;;;;;;4966384;28;20038;-86
2022/07/07 11:37:48;;;;;;;13.07;1.65;;;;;;;;;;4947853;28;20042;-87
2022/07/07 11:40:14;;;;;;;7.72;1.63;;;;;;;;;;4952033;28;20119;-87
2022/07/07 11:42:43;;;;;;;8.60;1.77;;;;;;;;;;4949052;28;20083;-87
2022/07/07 11:45:19;;;;;;;8.73;1.70;;;;;;;;;;4969884;28;20162;-86
2022/07/07 11:47:45;;;;;;;9.75;1.80;;;;;;;;;;4952787;28;20096;-87
2022/07/07 11:50:11;;;;;;;10.48;1.95;;;;;;;;;;4948791;28;20062;-87
2022/07/07 11:52:37;;;;;;;8.10;1.90;;;;;;;;;;4955583;28;20069;-87
2022/07/07 11:55:05;;;;;;;18.35;2.70;;;;;;;;;;4965510;28;20049;-87
2022/07/07 11:57:32;;;;;;;7.90;1.98;;;;;;;;;;4944936;28;20596;-88
2022/07/07 12:00:09;;;;;;;11.70;2.20;;;;;;;;;;4949060;28;20023;-88
2022/07/07 12:02:34;;;;;;;10.43;2.35;;;;;;;;;;4966660;28;20033;-87
2022/07/07 12:05:01;;;;;;;8.27;2.50;;;;;;;;;;4952595;28;20480;-88
2022/07/07 12:07:26;;;;;;;13.25;2.15;;;;;;;;;;4967584;28;20047;-88
2022/07/07 12:09:53;;;;;;;19.10;2.40;;;;;;;;;;4971219;28;20106;-86
2022/07/07 12:12:19;;;;;;;11.02;2.40;;;;;;;;;;4950288;28;20035;-88
2022/07/07 12:14:45;;;;;;;16.98;2.67;;;;;;;;;;4952756;28;20042;-87
2022/07/07 12:17:11;;;;;;;17.88;3.03;;;;;;;;;;4952153;28;20022;-88
2022/07/07 12:19:50;;;;;;;17.77;2.92;;;;;;;;;;4955471;28;20062;-88
2022/07/07 12:22:35;;;;;;;11.45;2.55;;;;;;;;;;4966556;28;20039;-87
2022/07/07 12:25:06;;;;;;;11.40;2.38;;;;;;;;;;4948483;28;20076;-87
2022/07/07 12:27:32;;;;;;;15.68;2.50;;;;;;;;;;4952605;28;20055;-88
2022/07/07 12:29:59;;;;;;;7.05;1.75;;;;;;;;;;4952901;28;20027;-87
2022/07/07 12:32:25;;;;;;;10.82;2.15;;;;;;;;;;4970349;28;20113;-87
2022/07/07 12:34:51;;;;;;;11.57;2.35;;;;;;;;;;4949949;28;20038;-87
2022/07/07 12:37:17;;;;;;;10.57;2.03;;;;;;;;;;4965996;28;20093;-87
2022/07/07 12:39:52;;;;;;;16.13;2.40;;;;;;;;;;4950817;28;20046;-87
2022/07/07 12:42:28;;;;;;;9.10;1.98;;;;;;;;;;4955879;28;20026;-87
2022/07/07 12:45:08;;;;;;;9.40;2.53;;;;;;;;;;4964130;28;20129;-86
2022/07/07 12:47:34;;;;;;;11.75;2.67;;;;;;;;;;4964012;28;20057;-87
2022/07/07 12:50:00;;;;;;;14.70;2.58;;;;;;;;;;4969647;28;20034;-87
2022/07/07 12:52:26;;;;;;;9.93;2.38;;;;;;;;;;4946541;28;20046;-86
2022/07/07 12:54:55;;;;;;;14.02;2.47;;;;;;;;;;4967409;28;20045;-87
2022/07/07 12:57:26;;;;;;;17.95;2.60;;;;;;;;;;4950030;28;20402;-88
2022/07/07 12:59:52;;;;;;;12.82;3.35;;;;;;;;;;4961734;28;20081;-87
2022/07/07 13:02:18;;;;;;;16.40;2.47;;;;;;;;;;4952924;28;20386;-87
2022/07/07 13:04:45;;;;;;;14.55;2.85;;;;;;;;;;4947853;28;20035;-87
2022/07/07 13:07:12;;;;;;;12.10;2.75;;;;;;;;;;4950081;28;20039;-88
2022/07/07 13:09:38;;;;;;;14.98;3.08;;;;;;;;;;4947760;28;20482;-87
2022/07/07 13:12:05;;;;;;;16.55;2.30;;;;;;;;;;4948751;28;20049;-87
2022/07/07 13:14:31;;;;;;;13.02;2.58;;;;;;;;;;4952519;28;20089;-87
2022/07/07 13:16:57;;;;;;;14.40;1.95;;;;;;;;;;4968061;28;20057;-87
2022/07/07 13:19:35;;;;;;;14.65;2.95;;;;;;;;;;4949349;28;20991;-87
2022/07/07 13:22:01;;;;;;;10.77;2.17;;;;;;;;;;4947951;28;20456;-85
2022/07/07 13:24:27;;;;;;;13.13;3.05;;;;;;;;;;4948769;28;20126;-86
2022/07/07 13:26:53;;;;;;;15.90;1.70;;;;;;;;;;4965831;28;20149;-87
2022/07/07 13:29:19;;;;;;;20.27;2.17;;;;;;;;;;4948840;28;20054;-87
2022/07/07 13:31:45;;;;;;;21.77;3.75;;;;;;;;;;4948831;28;20039;-88
2022/07/07 13:34:12;;;;;;;16.88;2.38;;;;;;;;;;4951580;28;20433;-86
2022/07/07 13:36:38;;;;;;;13.35;2.72;;;;;;;;;;4960181;28;20058;-87
2022/07/07 13:39:04;;;;;;;12.95;2.20;;;;;;;;;;4954063;28;20047;-87
2022/07/07 13:41:31;;;;;;;8.90;1.85;;;;;;;;;;4952581;28;20035;-87
2022/07/07 13:43:58;;;;;;;17.10;3.72;;;;;;;;;;4959742;28;20053;-87
2022/07/07 13:46:24;;;;;;;11.40;2.10;;;;;;;;;;4947213;28;20034;-87
2022/07/07 13:48:50;;;;;;;8.57;2.03;;;;;;;;;;4969683;28;20030;-87
2022/07/07 13:51:17;;;;;;;12.30;2.20;;;;;;;;;;4949367;28;20043;-87
2022/07/07 13:53:43;;;;;;;14.07;2.40;;;;;;;;;;4952230;28;20619;-88
2022/07/07 13:56:09;;;;;;;9.55;2.35;;;;;;;;;;4968144;28;20471;-88
2022/07/07 13:58:36;;;;;;;10.73;2.30;;;;;;;;;;4948660;28;20037;-87
2022/07/07 14:01:02;;;;;;;16.15;3.47;;;;;;;;;;4952051;28;20558;-87
2022/07/07 14:03:28;;;;;;;13.93;2.53;;;;;;;;;;4944376;28;20051;-87
2022/07/07 14:05:54;;;;;;;14.95;2.55;;;;;;;;;;4949769;28;20043;-87
2022/07/07 14:08:20;;;;;;;11.75;2.10;;;;;;;;;;4948261;28;20031;-87
2022/07/07 14:10:46;;;;;;;11.00;1.67;;;;;;;;;;4950456;28;20474;-86
2022/07/07 14:13:12;;;;;;;15.63;2.47;;;;;;;;;;4972146;28;20030;-87
2022/07/07 14:15:42;;;;;;;13.65;2.53;;;;;;;;;;4955567;28;20039;-87
2022/07/07 14:18:07;;;;;;;10.70;2.10;;;;;;;;;;4949492;28;20157;-87
2022/07/07 14:20:37;;;;;;;9.90;2.13;;;;;;;;;;4971922;28;20101;-87
2022/07/07 14:25:52;;;;;;;8.57;1.98;;;;;;;;;;4962089;28;20126;-87
2022/07/07 14:28:18;;;;;;;7.75;1.95;;;;;;;;;;4969420;28;20106;-87
2022/07/07 14:30:44;;;;;;;12.20;1.67;;;;;;;;;;4952913;28;20081;-87
2022/07/07 14:33:11;;;;;;;9.02;1.77;;;;;;;;;;4957639;28;20081;-87
2022/07/07 14:35:37;;;;;;;5.28;1.50;;;;;;;;;;4955914;28;20046;-87
2022/07/07 14:38:03;;;;;;;11.98;1.70;;;;;;;;;;4957848;28;20044;-87
2022/07/07 14:40:31;;;;;;;8.90;1.58;;;;;;;;;;4954575;28;20494;-88
2022/07/07 14:43:03;;;;;;;10.23;1.90;;;;;;;;;;4968070;28;20395;-87
2022/07/07 14:45:29;;;;;;;14.85;2.60;;;;;;;;;;4952844;28;20047;-87